createdAt,value
2023-04-18T00:01:25.059Z,97.37
2023-04-18T00:03:53.467Z,97.22
2023-04-18T00:06:22.272Z,97.72
2023-04-18T00:08:51.107Z,98.23
2023-04-18T00:11:19.013Z,97.77
2023-04-18T00:13:47.422Z,97.48
2023-04-18T00:16:15.521Z,98.39
2023-04-18T00:18:43.645Z,97.14
2023-04-18T00:21:11.665Z,95.47
2023-04-18T00:23:39.826Z,93.95
2023-04-18T00:26:07.883Z,92.94
2023-04-18T00:28:35.727Z,90.51
2023-04-18T00:31:03.785Z,90.50
2023-04-18T00:33:34.581Z,90.43
2023-04-18T00:36:02.525Z,89.79
2023-04-18T00:38:30.401Z,89.00
2023-04-18T00:40:58.349Z,89.68
2023-04-18T00:43:26.842Z,87.88
2023-04-18T00:45:57.085Z,87.71
2023-04-18T00:48:25.286Z,87.50
2023-04-18T00:50:55.989Z,87.46
2023-04-18T00:53:24.186Z,87.90
2023-04-18T00:55:53.145Z,88.04
2023-04-18T00:58:21.029Z,87.96
2023-04-18T01:00:48.921Z,87.36
2023-04-18T01:03:18.431Z,87.85
2023-04-18T01:05:47.368Z,87.83
2023-04-18T01:08:16.270Z,87.39
2023-04-18T01:10:44.373Z,87.07
2023-04-18T01:13:20.658Z,86.09
2023-04-18T01:15:50.700Z,85.90
2023-04-18T01:18:19.181Z,87.18
2023-04-18T01:20:49.417Z,86.88
2023-04-18T01:23:18.416Z,87.09
2023-04-18T01:25:47.414Z,86.60
2023-04-18T01:28:15.933Z,85.24
2023-04-18T01:30:43.801Z,85.63
2023-04-18T01:33:11.734Z,86.10
2023-04-18T01:35:39.679Z,85.71
2023-04-18T01:38:07.604Z,87.44
2023-04-18T01:40:35.705Z,86.71
2023-04-18T01:43:03.693Z,86.09
2023-04-18T01:45:31.597Z,86.06
2023-04-18T01:47:59.533Z,85.91
2023-04-18T01:50:27.391Z,86.83
2023-04-18T01:52:55.438Z,86.52
2023-04-18T01:55:23.321Z,87.37
2023-04-18T01:57:51.590Z,87.33
2023-04-18T02:00:21.035Z,86.59
2023-04-18T02:02:50.407Z,86.29
2023-04-18T02:05:18.636Z,87.03
2023-04-18T02:07:47.708Z,87.14
2023-04-18T02:10:15.885Z,86.92
2023-04-18T02:12:44.010Z,86.63
2023-04-18T02:15:11.879Z,87.05
2023-04-18T02:17:41.612Z,87.53
2023-04-18T02:20:10.871Z,87.17
2023-04-18T02:22:39.512Z,87.05
2023-04-18T02:25:07.933Z,87.87
2023-04-18T02:27:35.838Z,86.70
2023-04-18T02:30:03.844Z,88.10
2023-04-18T02:32:35.272Z,86.98
2023-04-18T02:35:03.417Z,87.32
2023-04-18T02:37:31.350Z,87.44
2023-04-18T02:39:59.208Z,87.43
2023-04-18T02:42:31.466Z,86.85
2023-04-18T02:45:00.407Z,87.63
2023-04-18T02:47:29.473Z,87.66
2023-04-18T02:49:58.910Z,87.28
2023-04-18T02:52:28.700Z,87.27
2023-04-18T02:54:56.668Z,87.84
2023-04-18T02:57:27.881Z,87.57
2023-04-18T03:00:01.403Z,87.51
2023-04-18T03:02:33.169Z,86.95
2023-04-18T03:05:10.248Z,86.91
2023-04-18T03:07:38.213Z,86.70
2023-04-18T03:10:06.651Z,87.10
2023-04-18T03:12:37.405Z,86.13
2023-04-18T03:15:06.289Z,86.60
2023-04-18T03:17:35.897Z,86.73
2023-04-18T03:20:06.478Z,86.43
2023-04-18T03:22:34.392Z,87.27
2023-04-18T03:25:02.565Z,87.80
2023-04-18T03:27:50.613Z,87.74
2023-04-18T03:30:21.073Z,88.22
2023-04-18T03:32:54.049Z,87.84
2023-04-18T03:35:22.234Z,87.38
2023-04-18T03:37:50.848Z,86.85
2023-04-18T03:40:25.201Z,86.53
2023-04-18T03:42:56.207Z,86.65
2023-04-18T03:45:24.067Z,87.38
2023-04-18T03:47:52.143Z,88.25
2023-04-18T03:50:21.580Z,87.34
2023-04-18T03:52:52.384Z,87.66
2023-04-18T03:55:20.310Z,87.84
2023-04-18T03:57:49.363Z,88.63
2023-04-18T04:00:26.138Z,88.92
2023-04-18T04:03:01.662Z,89.43
2023-04-18T04:05:30.102Z,88.83
2023-04-18T04:07:58.077Z,88.99
2023-04-18T04:10:26.232Z,87.28
2023-04-18T04:12:54.881Z,86.89
2023-04-18T04:15:22.949Z,86.26
2023-04-18T04:17:57.870Z,87.28
2023-04-18T04:20:26.635Z,88.56
2023-04-18T04:23:03.241Z,88.43
2023-04-18T04:25:34.181Z,88.57
2023-04-18T04:28:06.784Z,88.67
2023-04-18T04:30:41.946Z,88.51
2023-04-18T04:33:09.828Z,87.32
2023-04-18T04:35:39.199Z,87.52
2023-04-18T04:38:08.590Z,88.39
2023-04-18T04:40:44.675Z,87.92
2023-04-18T04:43:15.618Z,88.77
2023-04-18T04:45:45.257Z,88.51
2023-04-18T04:48:13.417Z,88.53
2023-04-18T04:50:42.576Z,87.90
2023-04-18T04:53:12.721Z,88.10
2023-04-18T04:55:41.426Z,88.62
2023-04-18T04:58:09.426Z,87.92
2023-04-18T05:00:47.407Z,87.78
2023-04-18T05:03:16.278Z,88.14
2023-04-18T05:05:44.921Z,88.57
2023-04-18T05:08:12.836Z,87.83
2023-04-18T05:10:41.567Z,87.75
2023-04-18T05:13:09.466Z,87.53
2023-04-18T05:15:37.540Z,86.73
2023-04-18T05:18:06.187Z,86.33
2023-04-18T05:20:34.105Z,86.26
2023-04-18T05:23:02.093Z,87.27
2023-04-18T05:25:31.548Z,86.54
2023-04-18T05:28:01.256Z,86.69
2023-04-18T05:30:29.127Z,86.40
2023-04-18T05:32:57.249Z,86.53
2023-04-18T05:35:25.157Z,86.59
2023-04-18T05:37:53.001Z,85.70
2023-04-18T05:40:20.982Z,86.57
2023-04-18T05:42:48.886Z,86.45
2023-04-18T05:45:16.826Z,86.48
2023-04-18T05:47:44.781Z,86.07
2023-04-18T05:50:12.782Z,85.02
2023-04-18T05:52:40.671Z,84.92
2023-04-18T05:55:08.968Z,84.95
2023-04-18T05:57:36.861Z,84.59
2023-04-18T06:00:11.403Z,85.19
2023-04-18T06:02:42.110Z,84.25
2023-04-18T06:05:10.318Z,85.49
2023-04-18T06:07:38.637Z,84.91
2023-04-18T06:11:22.467Z,85.15
2023-04-18T06:18:25.574Z,84.72
2023-04-18T06:20:53.568Z,85.27
2023-04-18T06:23:21.586Z,85.51
2023-04-18T06:25:49.621Z,84.79
2023-04-18T06:28:17.489Z,84.70
2023-04-18T06:30:45.449Z,85.79
2023-04-18T06:33:13.263Z,86.36
2023-04-18T06:35:41.615Z,85.07
2023-04-18T06:38:12.139Z,85.65
2023-04-18T06:40:40.034Z,84.92
2023-04-18T06:43:07.838Z,84.14
2023-04-18T06:45:36.441Z,85.15
2023-04-18T06:48:04.582Z,85.09
2023-04-18T06:50:32.462Z,83.31
2023-04-18T06:53:00.496Z,83.25
2023-04-18T06:55:28.383Z,83.58
2023-04-18T06:57:56.243Z,83.48
2023-04-18T07:00:24.077Z,83.72
2023-04-18T07:02:52.063Z,83.49
2023-04-18T07:05:20.104Z,82.62
2023-04-18T07:07:48.095Z,83.65
2023-04-18T07:10:16.129Z,85.56
2023-04-18T07:12:44.238Z,84.15
2023-04-18T07:15:12.205Z,85.23
2023-04-18T07:17:40.164Z,84.78
2023-04-18T07:20:08.752Z,84.46
2023-04-18T07:22:36.760Z,84.71
2023-04-18T07:25:04.938Z,85.31
2023-04-18T07:27:35.430Z,85.42
2023-04-18T07:30:04.391Z,85.40
2023-04-18T07:32:33.046Z,85.68
2023-04-18T07:35:01.348Z,83.85
2023-04-18T07:37:29.198Z,84.12
2023-04-18T07:39:57.018Z,85.00
2023-04-18T07:42:24.865Z,85.92
2023-04-18T07:44:58.187Z,84.66
2023-04-18T07:47:29.842Z,84.29
2023-04-18T07:49:58.830Z,84.38
2023-04-18T07:52:26.875Z,84.24
2023-04-18T07:54:54.837Z,84.60
2023-04-18T07:57:22.644Z,83.36
2023-04-18T07:59:53.756Z,83.11
2023-04-18T08:02:22.050Z,81.75
2023-04-18T08:04:50.100Z,81.22
2023-04-18T08:07:18.292Z,80.88
2023-04-18T08:09:46.205Z,82.14
2023-04-18T08:12:14.088Z,81.76
2023-04-18T08:14:41.972Z,82.95
2023-04-18T08:17:09.803Z,83.16
2023-04-18T08:19:37.637Z,82.49
2023-04-18T08:22:12.798Z,82.73
2023-04-18T08:24:46.383Z,83.01
2023-04-18T08:27:19.398Z,82.52
2023-04-18T08:29:47.310Z,83.45
2023-04-18T08:32:15.182Z,84.99
2023-04-18T08:34:43.556Z,83.87
2023-04-18T08:37:11.464Z,84.81
2023-04-18T08:39:39.254Z,87.14
2023-04-18T08:42:10.257Z,84.62
2023-04-18T08:44:38.125Z,85.09
2023-04-18T08:47:09.073Z,85.61
2023-04-18T08:49:37.039Z,86.23
2023-04-18T08:52:11.279Z,85.44
2023-04-18T08:54:42.107Z,84.49
2023-04-18T08:57:24.067Z,83.42
2023-04-18T08:59:54.604Z,83.51
2023-04-18T09:02:39.247Z,82.12
2023-04-18T09:05:22.001Z,83.14
2023-04-18T09:07:53.624Z,84.46
2023-04-18T09:10:33.577Z,85.00
2023-04-18T09:13:05.891Z,82.84
2023-04-18T09:15:34.503Z,80.96
2023-04-18T09:18:03.352Z,81.19
2023-04-18T09:20:41.442Z,81.44
2023-04-18T09:23:20.412Z,81.71
2023-04-18T09:25:50.933Z,80.76
2023-04-18T09:28:23.494Z,79.90
2023-04-18T09:30:52.774Z,81.12
2023-04-18T09:33:28.330Z,79.62
2023-04-18T09:35:57.206Z,80.56
2023-04-18T09:38:41.237Z,80.32
2023-04-18T09:41:13.285Z,79.39
2023-04-18T09:43:41.602Z,79.13
2023-04-18T09:46:10.025Z,79.91
2023-04-18T09:48:38.232Z,79.30
2023-04-18T09:51:09.460Z,81.10
2023-04-18T09:53:42.207Z,80.13
2023-04-18T09:56:17.597Z,81.56
2023-04-18T09:58:50.612Z,82.00
2023-04-18T10:01:19.110Z,82.67
2023-04-18T10:03:50.699Z,82.53
2023-04-18T10:06:19.279Z,83.19
2023-04-18T10:08:49.583Z,83.12
2023-04-18T10:11:19.833Z,82.60
2023-04-18T10:13:50.951Z,82.42
2023-04-18T10:16:20.438Z,82.83
2023-04-18T10:18:50.283Z,84.04
2023-04-18T10:21:18.172Z,81.71
2023-04-18T10:23:48.891Z,81.57
2023-04-18T10:26:16.806Z,82.88
2023-04-18T10:28:57.688Z,80.46
2023-04-18T10:31:28.497Z,80.48
2023-04-18T10:36:32.463Z,80.23
2023-04-18T10:39:05.069Z,79.89
2023-04-18T10:41:34.214Z,79.34
2023-04-18T10:44:34.738Z,79.53
2023-04-18T10:47:08.809Z,77.20
2023-04-18T10:49:37.360Z,78.09
2023-04-18T10:52:08.768Z,77.48
2023-04-18T11:07:49.931Z,76.11
2023-04-18T11:10:21.193Z,76.41
2023-04-18T11:12:49.664Z,76.82
2023-04-18T11:15:23.500Z,77.06
2023-04-18T11:18:04.991Z,77.12
2023-04-18T11:20:49.910Z,76.98
2023-04-18T11:23:23.861Z,75.99
2023-04-18T11:25:56.279Z,77.26
2023-04-18T11:28:27.033Z,77.31
2023-04-18T11:30:59.705Z,78.71
2023-04-18T11:33:29.373Z,78.71
2023-04-18T11:36:01.000Z,77.09
2023-04-18T11:38:33.896Z,78.40
2023-04-18T11:41:04.761Z,77.58
2023-04-18T11:43:33.117Z,77.43
2023-04-18T11:46:01.742Z,76.80
2023-04-18T11:48:40.161Z,78.41
2023-04-18T11:51:09.910Z,78.92
2023-04-18T11:53:39.535Z,78.44
2023-04-18T11:56:07.656Z,79.85
2023-04-18T11:58:36.737Z,76.76
2023-04-18T12:01:21.685Z,78.62
2023-04-18T12:04:07.382Z,79.34
2023-04-18T12:06:49.526Z,78.03
2023-04-18T12:09:19.070Z,79.61
2023-04-18T12:12:04.025Z,79.75
2023-04-18T12:14:31.959Z,80.64
2023-04-18T12:17:03.657Z,80.42
2023-04-18T12:19:31.550Z,79.37
2023-04-18T12:22:05.131Z,79.89
2023-04-18T12:24:33.158Z,79.02
2023-04-18T12:27:01.885Z,80.15
2023-04-18T12:29:29.848Z,80.42
2023-04-18T12:31:57.752Z,80.35
2023-04-18T12:34:25.720Z,80.39
2023-04-18T12:36:53.884Z,80.69
2023-04-18T12:39:21.772Z,80.24
2023-04-18T12:41:49.899Z,80.40
2023-04-18T12:44:18.176Z,81.09
2023-04-18T12:46:46.153Z,79.58
2023-04-18T12:49:14.053Z,79.99
2023-04-18T12:51:43.613Z,80.50
2023-04-18T12:54:11.595Z,79.97
2023-04-18T12:56:39.620Z,80.19
2023-04-18T12:59:07.673Z,80.05
2023-04-18T13:01:35.595Z,80.03
2023-04-18T13:04:11.814Z,80.26
2023-04-18T13:06:41.095Z,80.30
2023-04-18T13:09:09.326Z,81.25
2023-04-18T13:11:37.222Z,80.54
2023-04-18T13:14:05.143Z,80.25
2023-04-18T13:16:32.991Z,80.72
2023-04-18T13:19:00.919Z,79.64
2023-04-18T13:21:29.235Z,80.98
2023-04-18T13:23:57.398Z,81.95
2023-04-18T13:26:25.706Z,81.91
2023-04-18T13:28:53.511Z,80.41
2023-04-18T13:31:21.392Z,81.21
2023-04-18T13:33:49.270Z,79.86
2023-04-18T13:36:17.961Z,78.11
2023-04-18T13:38:46.338Z,78.62
2023-04-18T13:41:14.338Z,78.17
2023-04-18T13:43:42.207Z,78.91
2023-04-18T13:46:10.174Z,78.62
2023-04-18T13:48:38.064Z,76.96
2023-04-18T13:51:06.915Z,78.39
2023-04-18T13:53:34.951Z,78.06
2023-04-18T13:56:02.820Z,79.03
2023-04-18T13:58:30.737Z,79.27
2023-04-18T14:00:58.617Z,77.95
2023-04-18T14:03:26.949Z,78.33
2023-04-18T14:05:54.977Z,79.36
2023-04-18T14:08:22.899Z,78.45
2023-04-18T14:10:50.871Z,78.74
2023-04-18T14:13:18.956Z,78.72
2023-04-18T14:15:46.959Z,77.46
2023-04-18T14:18:17.848Z,78.34
2023-04-18T14:20:45.679Z,77.29
2023-04-18T14:23:13.530Z,76.40
2023-04-18T14:25:41.744Z,78.15
2023-04-18T14:28:11.924Z,76.49
2023-04-18T14:30:40.319Z,75.78
2023-04-18T14:33:09.759Z,76.27
2023-04-18T14:35:38.400Z,76.89
2023-04-18T14:38:06.269Z,77.41
2023-04-18T14:40:34.086Z,76.66
2023-04-18T14:43:02.262Z,75.96
2023-04-18T14:45:33.913Z,76.64
2023-04-18T14:48:01.881Z,76.95
2023-04-18T14:50:29.887Z,75.46
2023-04-18T14:52:57.753Z,75.16
2023-04-18T14:55:25.725Z,76.68
2023-04-18T14:57:54.757Z,75.28
2023-04-18T15:00:22.835Z,75.01
2023-04-18T15:02:50.828Z,76.15
2023-04-18T15:05:20.504Z,75.53
2023-04-18T15:07:48.368Z,76.14
2023-04-18T15:10:16.766Z,76.83
2023-04-18T15:12:46.754Z,77.26
2023-04-18T15:15:14.828Z,76.46
2023-04-18T15:17:42.856Z,77.07
2023-04-18T15:20:10.764Z,77.80
2023-04-18T15:22:38.632Z,77.33
2023-04-18T15:25:07.007Z,77.40
2023-04-18T15:27:34.985Z,77.46
2023-04-18T15:30:03.689Z,77.72
2023-04-18T15:32:32.871Z,77.25
2023-04-18T15:35:00.964Z,77.77
2023-04-18T15:37:28.945Z,76.85
2023-04-18T15:39:57.354Z,77.07
2023-04-18T15:42:25.460Z,77.49
2023-04-18T15:44:53.379Z,77.13
2023-04-18T15:47:21.468Z,77.69
2023-04-18T15:49:49.386Z,77.47
2023-04-18T15:52:17.442Z,77.10
2023-04-18T15:54:45.293Z,77.01
2023-04-18T15:57:13.438Z,76.90
2023-04-18T15:59:41.277Z,76.13
2023-04-18T16:02:09.677Z,77.02
2023-04-18T16:04:37.723Z,77.28
2023-04-18T16:07:06.486Z,78.07
2023-04-18T16:09:34.324Z,79.72
2023-04-18T16:12:03.317Z,78.13
2023-04-18T16:14:31.407Z,77.22
2023-04-18T16:16:59.714Z,78.38
2023-04-18T16:19:27.712Z,78.41
2023-04-18T16:21:55.533Z,78.78
2023-04-18T16:24:25.738Z,77.72
2023-04-18T16:26:55.520Z,79.37
2023-04-18T16:29:23.831Z,79.73
2023-04-18T16:31:51.857Z,79.37
2023-04-18T16:34:19.912Z,79.57
2023-04-18T16:36:50.661Z,79.53
2023-04-18T16:39:19.267Z,79.90
2023-04-18T16:41:47.213Z,79.76
2023-04-18T16:44:15.211Z,79.68
2023-04-18T16:46:43.273Z,79.23
2023-04-18T16:54:10.491Z,79.62
2023-04-18T16:56:39.216Z,79.13
2023-04-18T16:59:09.250Z,80.34
2023-04-18T17:01:37.804Z,79.93
2023-04-18T17:04:06.267Z,80.87
2023-04-18T17:06:34.372Z,80.39
2023-04-18T17:09:02.270Z,79.61
2023-04-18T17:11:32.169Z,80.35
2023-04-18T17:14:00.704Z,80.78
2023-04-18T17:16:28.617Z,80.59
2023-04-18T17:18:56.668Z,81.04
2023-04-18T17:21:24.537Z,81.63
2023-04-18T17:23:53.388Z,81.73
2023-04-18T17:26:24.187Z,80.52
2023-04-18T17:28:52.965Z,81.17
2023-04-18T17:31:20.854Z,81.80
2023-04-18T17:33:50.747Z,81.10
2023-04-18T17:36:18.696Z,81.08
2023-04-18T17:38:49.260Z,80.86
2023-04-18T17:41:18.468Z,80.81
2023-04-18T17:43:47.329Z,81.56
2023-04-18T17:46:15.493Z,82.02
2023-04-18T17:48:43.398Z,81.90
2023-04-18T17:51:11.291Z,82.22
2023-04-18T17:53:39.584Z,82.20
2023-04-18T17:56:07.430Z,83.40
2023-04-18T17:58:35.622Z,82.94
2023-04-18T18:01:03.653Z,83.31
2023-04-18T18:03:33.043Z,82.95
2023-04-18T18:06:02.169Z,83.33
2023-04-18T18:08:30.722Z,83.57
2023-04-18T18:10:59.328Z,83.06
2023-04-18T18:13:27.263Z,83.25
2023-04-18T18:15:57.544Z,82.23
2023-04-18T18:18:32.137Z,83.80
2023-04-18T18:21:00.051Z,85.35
2023-04-18T18:23:27.982Z,85.92
2023-04-18T18:25:55.833Z,86.11
2023-04-18T18:28:23.813Z,87.00
2023-04-18T18:30:51.954Z,89.02
2023-04-18T18:33:19.952Z,89.01
2023-04-18T18:35:47.828Z,90.61
2023-04-18T18:38:15.757Z,90.69
2023-04-18T18:40:43.718Z,92.39
2023-04-18T18:43:11.634Z,93.45
2023-04-18T18:45:39.515Z,94.11
2023-04-18T18:48:07.646Z,93.92
2023-04-18T18:50:35.770Z,93.23
2023-04-18T18:53:03.634Z,93.58
2023-04-18T18:55:31.671Z,95.33
2023-04-18T18:57:59.653Z,96.24
2023-04-18T19:00:27.691Z,96.80
2023-04-18T19:02:55.721Z,97.64
2023-04-18T19:05:23.746Z,97.87
2023-04-18T19:07:51.698Z,98.09
2023-04-18T19:10:19.881Z,98.73
2023-04-18T19:12:47.926Z,98.16
2023-04-18T19:15:16.905Z,99.20
2023-04-18T19:17:44.776Z,99.71
2023-04-18T19:20:13.320Z,100.00
2023-04-18T19:22:41.162Z,99.83
2023-04-18T19:25:09.589Z,100.00
2023-04-18T19:27:37.543Z,100.00
2023-04-18T19:30:06.157Z,100.00
2023-04-18T19:32:34.055Z,100.00
2023-04-18T19:35:02.040Z,100.00
2023-04-18T19:37:30.037Z,100.00
2023-04-18T19:39:58.081Z,100.00
2023-04-18T19:42:27.228Z,100.00
2023-04-18T19:44:56.588Z,100.00
2023-04-18T19:47:24.569Z,100.00
2023-04-18T19:49:52.491Z,100.00
2023-04-18T19:52:20.410Z,100.00
2023-04-18T19:54:48.316Z,100.00
2023-04-18T19:57:16.298Z,100.00
2023-04-18T19:59:44.302Z,100.00
2023-04-18T20:02:12.199Z,100.00
2023-04-18T20:04:41.723Z,100.00
2023-04-18T20:07:09.752Z,100.00
2023-04-18T20:09:38.005Z,100.00
2023-04-18T20:12:05.929Z,100.00
2023-04-18T20:14:33.824Z,100.00
2023-04-18T20:17:01.883Z,100.00
2023-04-18T20:19:29.937Z,100.00
2023-04-18T20:21:57.902Z,100.00
2023-04-18T20:24:27.947Z,100.00
2023-04-18T20:26:57.719Z,100.00
2023-04-18T20:29:26.987Z,100.00
2023-04-18T20:31:54.921Z,100.00
2023-04-18T20:34:23.241Z,100.00
2023-04-18T20:36:52.542Z,100.00
2023-04-18T20:39:20.559Z,100.00
2023-04-18T20:41:51.617Z,100.00
2023-04-18T20:44:20.937Z,100.00
2023-04-18T20:46:48.917Z,100.00
2023-04-18T20:49:16.989Z,100.00
2023-04-18T20:51:45.199Z,100.00
2023-04-18T20:54:13.343Z,100.00
2023-04-18T20:56:41.527Z,100.00
2023-04-18T20:59:09.455Z,100.00
2023-04-18T21:01:37.402Z,100.00
2023-04-18T21:04:05.462Z,100.00
2023-04-18T21:06:33.457Z,100.00
2023-04-18T21:09:01.497Z,100.00
2023-04-18T21:11:29.653Z,100.00
2023-04-18T21:13:57.575Z,100.00
2023-04-18T21:16:25.900Z,100.00
2023-04-18T21:18:55.213Z,100.00
2023-04-18T21:21:23.085Z,100.00
2023-04-18T21:23:51.073Z,100.00
2023-04-18T21:26:18.971Z,100.00
2023-04-18T21:28:53.690Z,100.00
2023-04-18T21:31:21.846Z,100.00
2023-04-18T21:33:57.258Z,100.00
2023-04-18T21:36:27.077Z,100.00
2023-04-18T21:38:56.311Z,100.00
2023-04-18T21:41:25.493Z,100.00
2023-04-18T21:43:53.671Z,100.00
2023-04-18T21:46:21.699Z,100.00
2023-04-18T21:48:49.705Z,100.00
2023-04-18T21:51:17.862Z,100.00
2023-04-18T21:53:45.848Z,100.00
2023-04-18T21:56:14.239Z,100.00
2023-04-18T21:58:42.320Z,100.00
2023-04-18T22:01:10.302Z,100.00
2023-04-18T22:03:38.347Z,100.00
2023-04-18T22:06:06.477Z,100.00
2023-04-18T22:08:34.300Z,100.00
2023-04-18T22:11:02.155Z,100.00
2023-04-18T22:13:32.779Z,100.00
2023-04-18T22:16:03.015Z,100.00
2023-04-18T22:18:34.417Z,100.00
2023-04-18T22:21:03.468Z,100.00
2023-04-18T22:23:31.428Z,100.00
2023-04-18T22:25:59.387Z,100.00
2023-04-18T22:28:30.078Z,100.00
2023-04-18T22:30:58.234Z,100.00
2023-04-18T22:33:26.114Z,100.00
2023-04-18T22:35:54.321Z,100.00
2023-04-18T22:38:22.250Z,100.00
2023-04-18T22:40:50.354Z,100.00
2023-04-18T22:43:22.729Z,100.00
2023-04-18T22:45:51.589Z,100.00
2023-04-18T22:48:19.558Z,100.00
2023-04-18T22:50:47.585Z,100.00
2023-04-18T22:53:16.085Z,100.00
2023-04-18T22:55:45.010Z,100.00
2023-04-18T22:58:13.500Z,100.00
2023-04-18T23:00:42.562Z,100.00
2023-04-18T23:03:10.702Z,100.00
2023-04-18T23:05:38.741Z,100.00
2023-04-18T23:08:07.089Z,100.00
2023-04-18T23:10:35.273Z,100.00
2023-04-18T23:13:03.551Z,100.00
2023-04-18T23:15:31.473Z,100.00
2023-04-18T23:17:59.506Z,100.00
2023-04-18T23:20:27.461Z,100.00
2023-04-18T23:22:56.043Z,100.00
2023-04-18T23:25:24.106Z,100.00
2023-04-18T23:27:52.127Z,100.00
2023-04-18T23:30:20.065Z,100.00
2023-04-18T23:32:47.978Z,100.00
2023-04-18T23:35:15.894Z,100.00
2023-04-18T23:37:43.839Z,100.00
2023-04-18T23:40:11.697Z,100.00
2023-04-18T23:42:39.604Z,100.00
2023-04-18T23:45:07.896Z,100.00
2023-04-18T23:47:36.470Z,100.00
2023-04-18T23:50:04.833Z,100.00
2023-04-18T23:52:32.777Z,100.00
2023-04-18T23:55:01.307Z,100.00
2023-04-18T23:57:29.595Z,100.00
2023-04-18T23:59:57.461Z,100.00
